Time,TemperatureF,DewpointF,PressureIn,WindDirection,WindDirectionDegrees,WindSpeedMPH,WindSpeedGustMPH,Humidity,HourlyPrecipIn,Conditions,Clouds,dailyrainin,SoftwareType,DateUTC
2013-02-05 00:03:00,5.0,2.0,-100.00,WSW,245,1.0,3.0,85,-99.99,,,-99.99,,2013-02-05 05:03:00,
2013-02-05 00:12:00,5.0,2.0,-100.00,WSW,245,1.0,3.0,85,-99.99,,,-99.99,,2013-02-05 05:12:00,
2013-02-05 00:22:00,5.0,2.0,-100.00,WSW,240,1.0,2.0,85,-99.99,,,-99.99,,2013-02-05 05:22:00,
2013-02-05 00:32:00,5.0,2.0,-100.00,SW,235,2.0,3.0,85,-99.99,,,-99.99,,2013-02-05 05:32:00,
2013-02-05 00:42:00,5.0,2.0,-100.00,SW,235,2.0,3.0,85,-99.99,,,-99.99,,2013-02-05 05:42:00,
2013-02-05 00:52:00,6.0,2.0,-100.00,SW,235,1.0,2.0,85,-99.99,,,-99.99,,2013-02-05 05:52:00,
2013-02-05 01:02:00,6.0,2.0,-100.00,SW,235,1.0,2.0,85,-99.99,,,-99.99,,2013-02-05 06:02:00,
2013-02-05 01:22:00,5.0,1.0,-100.00,WSW,250,1.0,2.0,85,-99.99,,,-99.99,,2013-02-05 06:22:00,
2013-02-05 01:32:00,5.0,2.0,-100.00,WSW,245,1.0,2.0,85,-99.99,,,-99.99,,2013-02-05 06:32:00,
2013-02-05 01:42:00,5.0,2.0,-100.00,WSW,245,1.0,2.0,85,-99.99,,,-99.99,,2013-02-05 06:42:00,
2013-02-05 01:52:00,5.0,1.0,-100.00,WSW,250,1.0,4.0,84,-99.99,,,-99.99,,2013-02-05 06:52:00,
2013-02-05 02:01:00,4.0,1.0,-100.00,West,260,1.0,3.0,84,-99.99,,,-99.99,,2013-02-05 07:01:00,
2013-02-05 02:11:00,4.0,1.0,-100.00,West,260,1.0,3.0,84,-99.99,,,-99.99,,2013-02-05 07:11:00,
2013-02-05 02:22:00,4.0,0.0,-100.00,West,260,1.0,2.0,84,-99.99,,,-99.99,,2013-02-05 07:22:00,
2013-02-05 02:32:00,4.0,0.0,-100.00,West,280,1.0,2.0,84,-99.99,,,-99.99,,2013-02-05 07:32:00,
2013-02-05 02:42:00,4.0,0.0,-100.00,West,280,1.0,2.0,84,-99.99,,,-99.99,,2013-02-05 07:42:00,
2013-02-05 02:52:00,3.0,-1.0,-100.00,SSW,205,2.0,4.0,84,-99.99,,,-99.99,,2013-02-05 07:52:00,
2013-02-05 03:01:00,2.0,-1.0,-100.00,WSW,245,1.0,3.0,84,-99.99,,,-99.99,,2013-02-05 08:01:00,
2013-02-05 03:11:00,2.0,-1.0,-100.00,WSW,245,1.0,3.0,84,-99.99,,,-99.99,,2013-02-05 08:11:00,
2013-02-05 03:22:00,3.0,-1.0,-100.00,WSW,245,1.0,3.0,84,-99.99,,,-99.99,,2013-02-05 08:22:00,
2013-02-05 03:32:00,3.0,-1.0,-100.00,WNW,285,1.0,2.0,84,-99.99,,,-99.99,,2013-02-05 08:32:00,
2013-02-05 03:42:00,3.0,-1.0,-100.00,WNW,285,1.0,2.0,84,-99.99,,,-99.99,,2013-02-05 08:42:00,
2013-02-05 03:52:00,3.0,-1.0,-100.00,WSW,255,1.0,2.0,84,-99.99,,,-99.99,,2013-02-05 08:52:00,
2013-02-05 04:02:00,3.0,-1.0,-100.00,West,270,1.0,2.0,84,-99.99,,,-99.99,,2013-02-05 09:02:00,
2013-02-05 04:12:00,3.0,-1.0,-100.00,West,270,1.0,2.0,84,-99.99,,,-99.99,,2013-02-05 09:12:00,
2013-02-05 04:22:00,3.0,-1.0,-100.00,WNW,285,1.0,2.0,84,-99.99,,,-99.99,,2013-02-05 09:22:00,
2013-02-05 04:32:00,3.0,-1.0,-100.00,West,280,2.0,3.0,84,-99.99,,,-99.99,,2013-02-05 09:32:00,
2013-02-05 04:42:00,3.0,-1.0,-100.00,West,280,2.0,3.0,84,-99.99,,,-99.99,,2013-02-05 09:42:00,
2013-02-05 04:51:00,3.0,-1.0,-100.00,WNW,290,1.0,3.0,84,-99.99,,,-99.99,,2013-02-05 09:51:00,
2013-02-05 05:02:00,2.0,-2.0,-100.00,SW,225,1.0,3.0,83,-99.99,,,-99.99,,2013-02-05 10:02:00,
2013-02-05 05:11:00,2.0,-2.0,-100.00,SW,225,1.0,3.0,83,-99.99,,,-99.99,,2013-02-05 10:11:00,
2013-02-05 05:21:00,4.0,0.0,-100.00,SSW,210,1.0,3.0,84,-99.99,,,-99.99,,2013-02-05 10:21:00,
2013-02-05 05:32:00,6.0,3.0,-100.00,SSW,210,1.0,3.0,85,-99.99,,,-99.99,,2013-02-05 10:32:00,
2013-02-05 05:42:00,6.0,3.0,-100.00,SSW,210,1.0,3.0,85,-99.99,,,-99.99,,2013-02-05 10:42:00,
2013-02-05 05:52:00,9.0,6.0,-100.00,SSE,160,1.0,3.0,85,-99.99,,,-99.99,,2013-02-05 10:52:00,
2013-02-05 06:01:00,12.0,9.0,-100.00,SSE,165,2.0,6.0,85,-99.99,,,-99.99,,2013-02-05 11:01:00,
2013-02-05 06:22:00,14.0,10.0,-100.00,ESE,115,1.0,6.0,84,-99.99,,,-99.99,,2013-02-05 11:22:00,
2013-02-05 06:32:00,14.0,10.0,-100.00,South,190,2.0,5.0,83,-99.99,,,-99.99,,2013-02-05 11:32:00,
2013-02-05 06:52:00,16.0,12.0,-100.00,South,185,6.0,11.0,83,-99.99,,,-99.99,,2013-02-05 11:52:00,
2013-02-05 07:02:00,16.0,12.0,-100.00,SSE,165,6.0,11.0,83,-99.99,,,-99.99,,2013-02-05 12:02:00,
2013-02-05 07:22:00,16.0,12.0,-100.00,SSW,195,7.0,10.0,83,-99.99,,,-99.99,,2013-02-05 12:22:00,
2013-02-05 07:32:00,16.0,12.0,-100.00,SSW,200,5.0,11.0,83,-99.99,,,-99.99,,2013-02-05 12:32:00,
2013-02-05 07:52:00,16.0,12.0,-100.00,SSW,195,6.0,11.0,83,-99.99,,,-99.99,,2013-02-05 12:52:00,
2013-02-05 08:02:00,16.0,12.0,-100.00,SSE,160,4.0,11.0,83,-99.99,,,-99.99,,2013-02-05 13:02:00,
2013-02-05 08:22:00,16.0,12.0,-100.00,South,170,3.0,8.0,83,-99.99,,,-99.99,,2013-02-05 13:22:00,
2013-02-05 08:32:00,17.0,12.0,-100.00,South,175,6.0,10.0,82,-99.99,,,-99.99,,2013-02-05 13:32:00,
2013-02-05 08:52:00,17.0,12.0,-100.00,SSW,195,4.0,8.0,82,-99.99,,,-99.99,,2013-02-05 13:52:00,
2013-02-05 09:01:00,17.0,13.0,-100.00,South,190,5.0,9.0,83,-99.99,,,-99.99,,2013-02-05 14:01:00,
2013-02-05 09:12:00,17.0,13.0,-100.00,South,190,5.0,9.0,83,-99.99,,,-99.99,,2013-02-05 14:12:00,
2013-02-05 09:22:00,18.0,14.0,-100.00,South,180,6.0,10.0,85,-99.99,,,-99.99,,2013-02-05 14:22:00,
2013-02-05 09:32:00,18.0,14.0,-100.00,SSW,210,7.0,11.0,84,-99.99,,,-99.99,,2013-02-05 14:32:00,
2013-02-05 09:42:00,18.0,14.0,-100.00,SSW,210,7.0,11.0,84,-99.99,,,-99.99,,2013-02-05 14:42:00,
2013-02-05 09:52:00,19.0,14.0,-100.00,SSW,205,10.0,14.0,81,-99.99,,,-99.99,,2013-02-05 14:52:00,
2013-02-05 10:02:00,19.0,15.0,-100.00,SSW,200,8.0,11.0,83,-99.99,,,-99.99,,2013-02-05 15:02:00,
2013-02-05 10:11:00,19.0,15.0,-100.00,SSW,200,8.0,11.0,83,-99.99,,,-99.99,,2013-02-05 15:11:00,
2013-02-05 10:22:00,20.0,15.0,-100.00,SSW,205,5.0,9.0,83,-99.99,,,-99.99,,2013-02-05 15:22:00,
2013-02-05 10:32:00,20.0,16.0,-100.00,SSW,200,8.0,14.0,82,-99.99,,,-99.99,,2013-02-05 15:32:00,
2013-02-05 10:42:00,20.0,16.0,-100.00,SSW,200,8.0,14.0,82,-99.99,,,-99.99,,2013-02-05 15:42:00,
2013-02-05 10:52:00,20.0,17.0,-100.00,SSW,200,8.0,14.0,85,-99.99,,,-99.99,,2013-02-05 15:52:00,
2013-02-05 11:01:00,21.0,18.0,-100.00,SSW,205,8.0,15.0,87,-99.99,,,-99.99,,2013-02-05 16:01:00,
2013-02-05 11:12:00,21.0,18.0,-100.00,SSW,205,8.0,15.0,87,-99.99,,,-99.99,,2013-02-05 16:12:00,
2013-02-05 11:22:00,21.0,18.0,-100.00,SSW,195,9.0,14.0,88,-99.99,,,-99.99,,2013-02-05 16:22:00,
2013-02-05 11:32:00,22.0,19.0,-100.00,SSW,205,9.0,14.0,88,-99.99,,,-99.99,,2013-02-05 16:32:00,
2013-02-05 11:42:00,22.0,19.0,-100.00,SSW,205,9.0,14.0,88,-99.99,,,-99.99,,2013-02-05 16:42:00,
2013-02-05 11:52:00,22.0,19.0,-100.00,South,175,5.0,11.0,87,-99.99,,,-99.99,,2013-02-05 16:52:00,
2013-02-05 12:01:00,22.0,19.0,-100.00,South,175,5.0,11.0,87,-99.99,,,-99.99,,2013-02-05 17:01:00,
2013-02-05 12:12:00,22.0,19.0,-100.00,South,175,5.0,11.0,87,-99.99,,,-99.99,,2013-02-05 17:12:00,
2013-02-05 12:22:00,23.0,20.0,-100.00,South,185,6.0,9.0,88,-99.99,,,-99.99,,2013-02-05 17:22:00,
2013-02-05 12:32:00,23.0,20.0,-100.00,South,185,4.0,9.0,87,-99.99,,,-99.99,,2013-02-05 17:32:00,
2013-02-05 12:42:00,23.0,20.0,-100.00,South,185,4.0,9.0,87,-99.99,,,-99.99,,2013-02-05 17:42:00,
2013-02-05 12:52:00,24.0,21.0,-100.00,South,185,4.0,8.0,88,-99.99,,,-99.99,,2013-02-05 17:52:00,
2013-02-05 13:02:00,24.0,21.0,-100.00,South,185,4.0,8.0,88,-99.99,,,-99.99,,2013-02-05 18:02:00,
2013-02-05 13:22:00,25.0,22.0,-100.00,South,190,9.0,13.0,86,-99.99,,,-99.99,,2013-02-05 18:22:00,
2013-02-05 13:32:00,26.0,22.0,-100.00,SSW,200,5.0,14.0,85,-99.99,,,-99.99,,2013-02-05 18:32:00,
2013-02-05 13:42:00,26.0,22.0,-100.00,SSW,200,5.0,14.0,85,-99.99,,,-99.99,,2013-02-05 18:42:00,
2013-02-05 13:52:00,26.0,22.0,-100.00,SSW,205,10.0,16.0,85,-99.99,,,-99.99,,2013-02-05 18:52:00,
2013-02-05 14:02:00,26.0,23.0,-100.00,SSW,200,9.0,14.0,88,-99.99,,,-99.99,,2013-02-05 19:02:00,
2013-02-05 14:11:00,26.0,23.0,-100.00,SSW,200,9.0,14.0,88,-99.99,,,-99.99,,2013-02-05 19:11:00,
2013-02-05 14:22:00,27.0,24.0,-100.00,South,190,8.0,14.0,88,-99.99,,,-99.99,,2013-02-05 19:22:00,
2013-02-05 14:32:00,26.0,24.0,-100.00,SSW,200,8.0,11.0,91,-99.99,,,-99.99,,2013-02-05 19:32:00,
2013-02-05 14:42:00,26.0,24.0,-100.00,SSW,200,8.0,11.0,91,-99.99,,,-99.99,,2013-02-05 19:42:00,
2013-02-05 14:52:00,27.0,25.0,-100.00,SSW,210,6.0,11.0,93,-99.99,,,-99.99,,2013-02-05 19:52:00,
2013-02-05 15:02:00,27.0,25.0,-100.00,SSW,210,5.0,14.0,93,-99.99,,,-99.99,,2013-02-05 20:02:00,
2013-02-05 15:22:00,26.0,25.0,-100.00,WSW,255,8.0,13.0,93,-99.99,,,-99.99,,2013-02-05 20:22:00,
2013-02-05 15:32:00,26.0,25.0,-100.00,SW,230,8.0,14.0,93,-99.99,,,-99.99,,2013-02-05 20:32:00,
2013-02-05 15:42:00,26.0,25.0,-100.00,SW,230,8.0,14.0,93,-99.99,,,-99.99,,2013-02-05 20:42:00,
2013-02-05 15:52:00,26.0,24.0,-100.00,West,260,7.0,14.0,91,-99.99,,,-99.99,,2013-02-05 20:52:00,
2013-02-05 16:02:00,28.0,25.0,-100.00,West,280,5.0,17.0,89,-99.99,,,-99.99,,2013-02-05 21:02:00,
2013-02-05 16:22:00,27.0,23.0,-100.00,WNW,285,6.0,14.0,86,-99.99,,,-99.99,,2013-02-05 21:22:00,
2013-02-05 16:32:00,26.0,22.0,-100.00,NW,325,9.0,19.0,84,-99.99,,,-99.99,,2013-02-05 21:32:00,
2013-02-05 16:52:00,26.0,20.0,-100.00,WNW,300,5.0,15.0,80,-99.99,,,-99.99,,2013-02-05 21:52:00,
2013-02-05 17:02:00,26.0,20.0,-100.00,WNW,290,8.0,13.0,76,-99.99,,,-99.99,,2013-02-05 22:02:00,
2013-02-05 17:22:00,27.0,20.0,-100.00,West,275,4.0,12.0,72,-99.99,,,-99.99,,2013-02-05 22:22:00,
2013-02-05 17:32:00,27.0,19.0,-100.00,WNW,285,1.0,11.0,73,-99.99,,,-99.99,,2013-02-05 22:32:00,
2013-02-05 17:52:00,25.0,19.0,-100.00,West,280,6.0,10.0,75,-99.99,,,-99.99,,2013-02-05 22:52:00,
2013-02-05 18:02:00,25.0,19.0,-100.00,West,270,4.0,9.0,76,-99.99,,,-99.99,,2013-02-05 23:02:00,
2013-02-05 18:22:00,23.0,18.0,-100.00,WSW,255,6.0,11.0,79,-99.99,,,-99.99,,2013-02-05 23:22:00,
2013-02-05 18:32:00,22.0,17.0,-100.00,WSW,245,6.0,11.0,81,-99.99,,,-99.99,,2013-02-05 23:32:00,
2013-02-05 18:42:00,22.0,17.0,-100.00,WSW,245,6.0,11.0,81,-99.99,,,-99.99,,2013-02-05 23:42:00,
2013-02-05 18:52:00,22.0,18.0,-100.00,WSW,255,6.0,9.0,84,-99.99,,,-99.99,,2013-02-05 23:52:00,
2013-02-05 19:02:00,22.0,18.0,-100.00,WSW,250,6.0,9.0,86,-99.99,,,-99.99,,2013-02-06 00:02:00,
2013-02-05 19:12:00,22.0,18.0,-100.00,WSW,250,6.0,9.0,86,-99.99,,,-99.99,,2013-02-06 00:12:00,
2013-02-05 19:22:00,22.0,18.0,-100.00,West,270,5.0,11.0,87,-99.99,,,-99.99,,2013-02-06 00:22:00,
2013-02-05 19:32:00,21.0,18.0,-100.00,WSW,255,4.0,10.0,88,-99.99,,,-99.99,,2013-02-06 00:32:00,
2013-02-05 19:42:00,21.0,18.0,-100.00,WSW,255,4.0,10.0,88,-99.99,,,-99.99,,2013-02-06 00:42:00,
2013-02-05 19:52:00,21.0,18.0,-100.00,WSW,240,4.0,6.0,89,-99.99,,,-99.99,,2013-02-06 00:52:00,
2013-02-05 20:02:00,21.0,18.0,-100.00,WSW,245,4.0,7.0,89,-99.99,,,-99.99,,2013-02-06 01:02:00,
2013-02-05 20:12:00,21.0,18.0,-100.00,WSW,245,4.0,7.0,89,-99.99,,,-99.99,,2013-02-06 01:12:00,
2013-02-05 20:22:00,21.0,19.0,-100.00,West,265,4.0,8.0,90,-99.99,,,-99.99,,2013-02-06 01:22:00,
2013-02-05 20:32:00,22.0,19.0,-100.00,West,275,5.0,11.0,89,-99.99,,,-99.99,,2013-02-06 01:32:00,
2013-02-05 20:42:00,22.0,19.0,-100.00,West,275,5.0,11.0,89,-99.99,,,-99.99,,2013-02-06 01:42:00,
2013-02-05 20:52:00,22.0,19.0,-100.00,West,265,6.0,11.0,88,-99.99,,,-99.99,,2013-02-06 01:52:00,
2013-02-05 21:02:00,23.0,19.0,-100.00,West,270,7.0,14.0,86,-99.99,,,-99.99,,2013-02-06 02:02:00,
2013-02-05 21:12:00,23.0,19.0,-100.00,West,270,7.0,14.0,86,-99.99,,,-99.99,,2013-02-06 02:12:00,
2013-02-05 21:22:00,23.0,19.0,-100.00,West,275,5.0,10.0,86,-99.99,,,-99.99,,2013-02-06 02:22:00,
2013-02-05 21:32:00,22.0,19.0,-100.00,West,260,8.0,16.0,87,-99.99,,,-99.99,,2013-02-06 02:32:00,
2013-02-05 21:42:00,22.0,19.0,-100.00,West,260,8.0,16.0,87,-99.99,,,-99.99,,2013-02-06 02:42:00,
2013-02-05 21:52:00,23.0,19.0,-100.00,West,275,7.0,19.0,87,-99.99,,,-99.99,,2013-02-06 02:52:00,
2013-02-05 22:03:00,22.0,19.0,-100.00,West,265,6.0,14.0,86,-99.99,,,-99.99,,2013-02-06 03:03:00,
2013-02-05 22:12:00,22.0,19.0,-100.00,West,265,6.0,14.0,86,-99.99,,,-99.99,,2013-02-06 03:12:00,
2013-02-05 22:22:00,22.0,19.0,-100.00,WSW,240,5.0,11.0,86,-99.99,,,-99.99,,2013-02-06 03:22:00,
2013-02-05 22:32:00,21.0,18.0,-100.00,West,270,8.0,15.0,87,-99.99,,,-99.99,,2013-02-06 03:32:00,
2013-02-05 22:42:00,21.0,18.0,-100.00,West,270,8.0,15.0,87,-99.99,,,-99.99,,2013-02-06 03:42:00,
2013-02-05 22:52:00,21.0,18.0,-100.00,WSW,255,8.0,13.0,87,-99.99,,,-99.99,,2013-02-06 03:52:00,
2013-02-05 23:02:00,21.0,18.0,-100.00,West,260,6.0,14.0,86,-99.99,,,-99.99,,2013-02-06 04:02:00,
2013-02-05 23:22:00,21.0,17.0,-100.00,West,265,9.0,16.0,85,-99.99,,,-99.99,,2013-02-06 04:22:00,
2013-02-05 23:32:00,20.0,16.0,-100.00,West,260,5.0,12.0,84,-99.99,,,-99.99,,2013-02-06 04:32:00,
2013-02-05 23:42:00,20.0,16.0,-100.00,West,260,5.0,12.0,84,-99.99,,,-99.99,,2013-02-06 04:42:00,
2013-02-05 23:52:00,20.0,15.0,-100.00,West,270,9.0,14.0,82,-99.99,,,-99.99,,2013-02-06 04:52:00,